Davenport, Iowa
Current Conditions -  °F | °C
As of 3:52 PM on Tuesday 21 Oct 2014 (Local Time) from KDVN Reporting Station
Clear Clear  
Wind Chill: 57°   Ceiling: Unl
Heat Index: 57°   Visibility: 10mi
Dew Point: 37°   Wind: 7mph
Humidity: 47%   Direction: 90°E
Pressure: 30.17"   Gusts: NA
Location:  41.54°N, 90.58°W
Report Text: KDVN 212052Z AUTO 09006KT 10SM CLR 14/03 A3017 RMK AO2 SLP220 T01390028 56008 TSNO
Loading
Personal Weather Stations






























Interactive Weather Map
Tropical Storm Tracking
New forecast layout! Learn more

10-Day Weather Forecast

Advertisements
Track Severe Weather on mobile